sensor_id;sensor_type;location;lat;lon;timestamp;temperature;humidity
3492;DHT22;1760;52.480;13.422;2022-11-27T00:01:29;9.20;99.90
3492;DHT22;1760;52.480;13.422;2022-11-27T00:03:56;9.40;99.90
3492;DHT22;1760;52.480;13.422;2022-11-27T00:06:30;9.30;99.90
3492;DHT22;1760;52.480;13.422;2022-11-27T00:09:00;9.30;99.90
3492;DHT22;1760;52.480;13.422;2022-11-27T00:11:29;9.20;99.90
3492;DHT22;1760;52.480;13.422;2022-11-27T00:14:01;9.20;99.90
3492;DHT22;1760;52.480;13.422;2022-11-27T00:16:28;9.20;99.90
3492;DHT22;1760;52.480;13.422;2022-11-27T00:18:55;9.20;99.90
3492;DHT22;1760;52.480;13.422;2022-11-27T00:21:30;9.20;99.90
3492;DHT22;1760;52.480;13.422;2022-11-27T00:24:01;9.20;99.90
3492;DHT22;1760;52.480;13.422;2022-11-27T00:26:29;9.20;99.90
3492;DHT22;1760;52.480;13.422;2022-11-27T00:28:56;9.10;99.90
3492;DHT22;1760;52.480;13.422;2022-11-27T00:31:25;9.10;99.90
3492;DHT22;1760;52.480;13.422;2022-11-27T00:33:54;9.10;99.90
3492;DHT22;1760;52.480;13.422;2022-11-27T00:36:24;9.10;99.90
3492;DHT22;1760;52.480;13.422;2022-11-27T00:38:51;9.10;99.90
3492;DHT22;1760;52.480;13.422;2022-11-27T00:41:22;9.00;99.90
3492;DHT22;1760;52.480;13.422;2022-11-27T00:43:49;9.00;99.90
3492;DHT22;1760;52.480;13.422;2022-11-27T00:46:18;9.00;99.90
3492;DHT22;1760;52.480;13.422;2022-11-27T00:48:45;9.00;99.90
3492;DHT22;1760;52.480;13.422;2022-11-27T00:51:18;9.00;99.90
3492;DHT22;1760;52.480;13.422;2022-11-27T00:53:46;8.90;99.90
3492;DHT22;1760;52.480;13.422;2022-11-27T00:56:18;8.90;99.90
3492;DHT22;1760;52.480;13.422;2022-11-27T00:58:47;8.90;99.90
3492;DHT22;1760;52.480;13.422;2022-11-27T01:01:16;8.80;99.90
3492;DHT22;1760;52.480;13.422;2022-11-27T01:03:44;8.80;99.90
3492;DHT22;1760;52.480;13.422;2022-11-27T01:06:11;8.80;99.90
3492;DHT22;1760;52.480;13.422;2022-11-27T01:08:49;8.80;99.90
3492;DHT22;1760;52.480;13.422;2022-11-27T01:11:20;8.80;99.90
3492;DHT22;1760;52.480;13.422;2022-11-27T01:13:48;8.80;99.90
3492;DHT22;1760;52.480;13.422;2022-11-27T01:16:17;8.80;99.90
3492;DHT22;1760;52.480;13.422;2022-11-27T01:18:52;8.80;99.90
3492;DHT22;1760;52.480;13.422;2022-11-27T01:21:20;8.80;99.90
3492;DHT22;1760;52.480;13.422;2022-11-27T01:23:50;8.80;99.90
3492;DHT22;1760;52.480;13.422;2022-11-27T01:26:17;8.80;99.90
3492;DHT22;1760;52.480;13.422;2022-11-27T01:28:45;8.80;99.90
3492;DHT22;1760;52.480;13.422;2022-11-27T01:31:15;8.80;99.90
3492;DHT22;1760;52.480;13.422;2022-11-27T01:33:43;8.90;99.90
3492;DHT22;1760;52.480;13.422;2022-11-27T01:36:13;8.90;99.90
3492;DHT22;1760;52.480;13.422;2022-11-27T01:38:41;8.90;99.90
3492;DHT22;1760;52.480;13.422;2022-11-27T01:41:13;8.90;99.90
3492;DHT22;1760;52.480;13.422;2022-11-27T01:43:43;8.90;99.90
3492;DHT22;1760;52.480;13.422;2022-11-27T01:46:24;8.90;99.90
3492;DHT22;1760;52.480;13.422;2022-11-27T01:48:53;8.90;99.90
3492;DHT22;1760;52.480;13.422;2022-11-27T01:51:24;8.90;99.90
3492;DHT22;1760;52.480;13.422;2022-11-27T01:53:55;8.90;99.90
3492;DHT22;1760;52.480;13.422;2022-11-27T01:56:23;8.90;99.90
3492;DHT22;1760;52.480;13.422;2022-11-27T01:58:51;8.90;99.90
3492;DHT22;1760;52.480;13.422;2022-11-27T02:01:19;8.90;99.90
3492;DHT22;1760;52.480;13.422;2022-11-27T02:03:52;8.90;99.90
3492;DHT22;1760;52.480;13.422;2022-11-27T02:06:18;8.90;99.90
3492;DHT22;1760;52.480;13.422;2022-11-27T02:08:45;8.90;99.90
3492;DHT22;1760;52.480;13.422;2022-11-27T02:11:18;8.90;99.90
3492;DHT22;1760;52.480;13.422;2022-11-27T02:13:54;8.90;99.90
3492;DHT22;1760;52.480;13.422;2022-11-27T02:16:32;8.90;99.90
3492;DHT22;1760;52.480;13.422;2022-11-27T02:19:12;8.90;99.90
3492;DHT22;1760;52.480;13.422;2022-11-27T02:21:46;8.90;99.90
3492;DHT22;1760;52.480;13.422;2022-11-27T02:24:44;8.90;99.90
3492;DHT22;1760;52.480;13.422;2022-11-27T02:27:50;8.80;99.90
3492;DHT22;1760;52.480;13.422;2022-11-27T02:30:20;8.70;99.90
3492;DHT22;1760;52.480;13.422;2022-11-27T02:32:51;8.70;99.90
3492;DHT22;1760;52.480;13.422;2022-11-27T02:35:25;8.70;99.90
3492;DHT22;1760;52.480;13.422;2022-11-27T02:37:57;8.70;99.90
3492;DHT22;1760;52.480;13.422;2022-11-27T02:40:35;8.70;99.90
3492;DHT22;1760;52.480;13.422;2022-11-27T02:43:07;8.70;99.90
3492;DHT22;1760;52.480;13.422;2022-11-27T02:45:40;8.70;99.90
3492;DHT22;1760;52.480;13.422;2022-11-27T02:48:08;8.70;99.90
3492;DHT22;1760;52.480;13.422;2022-11-27T02:50:40;8.60;99.90
3492;DHT22;1760;52.480;13.422;2022-11-27T02:53:14;8.60;99.90
3492;DHT22;1760;52.480;13.422;2022-11-27T02:55:47;8.60;99.90
3492;DHT22;1760;52.480;13.422;2022-11-27T02:58:18;8.50;99.90
3492;DHT22;1760;52.480;13.422;2022-11-27T03:00:47;8.50;99.90
3492;DHT22;1760;52.480;13.422;2022-11-27T03:03:20;8.50;99.90
3492;DHT22;1760;52.480;13.422;2022-11-27T03:05:54;8.50;99.90
3492;DHT22;1760;52.480;13.422;2022-11-27T03:08:27;8.50;99.90
3492;DHT22;1760;52.480;13.422;2022-11-27T03:11:02;8.40;99.90
3492;DHT22;1760;52.480;13.422;2022-11-27T03:13:36;8.40;99.90
3492;DHT22;1760;52.480;13.422;2022-11-27T03:16:10;8.40;99.90
3492;DHT22;1760;52.480;13.422;2022-11-27T03:18:43;8.40;99.90
3492;DHT22;1760;52.480;13.422;2022-11-27T03:21:20;8.40;99.90
3492;DHT22;1760;52.480;13.422;2022-11-27T03:23:52;8.40;99.90
3492;DHT22;1760;52.480;13.422;2022-11-27T03:26:19;8.30;99.90
3492;DHT22;1760;52.480;13.422;2022-11-27T03:28:50;8.30;99.90
3492;DHT22;1760;52.480;13.422;2022-11-27T03:31:22;8.30;99.90
3492;DHT22;1760;52.480;13.422;2022-11-27T03:33:49;8.30;99.90
3492;DHT22;1760;52.480;13.422;2022-11-27T03:36:20;8.20;99.90
3492;DHT22;1760;52.480;13.422;2022-11-27T03:38:51;8.20;99.90
3492;DHT22;1760;52.480;13.422;2022-11-27T03:41:26;8.20;99.90
3492;DHT22;1760;52.480;13.422;2022-11-27T03:44:04;8.20;99.90
3492;DHT22;1760;52.480;13.422;2022-11-27T03:46:42;8.10;99.90
3492;DHT22;1760;52.480;13.422;2022-11-27T03:49:16;8.10;99.90
3492;DHT22;1760;52.480;13.422;2022-11-27T03:51:50;8.00;99.90
3492;DHT22;1760;52.480;13.422;2022-11-27T03:54:25;8.00;99.90
3492;DHT22;1760;52.480;13.422;2022-11-27T03:57:00;7.90;99.90
3492;DHT22;1760;52.480;13.422;2022-11-27T03:59:36;7.90;99.90
3492;DHT22;1760;52.480;13.422;2022-11-27T04:02:09;7.80;99.90
3492;DHT22;1760;52.480;13.422;2022-11-27T04:04:37;7.80;99.90
3492;DHT22;1760;52.480;13.422;2022-11-27T04:07:15;7.80;99.90
3492;DHT22;1760;52.480;13.422;2022-11-27T04:09:42;7.70;99.90
3492;DHT22;1760;52.480;13.422;2022-11-27T04:12:09;7.70;99.90
3492;DHT22;1760;52.480;13.422;2022-11-27T04:14:38;7.70;99.90
3492;DHT22;1760;52.480;13.422;2022-11-27T04:17:07;7.60;99.90
3492;DHT22;1760;52.480;13.422;2022-11-27T04:19:34;7.60;99.90
3492;DHT22;1760;52.480;13.422;2022-11-27T04:22:01;7.50;99.90
3492;DHT22;1760;52.480;13.422;2022-11-27T04:24:28;7.50;99.90
3492;DHT22;1760;52.480;13.422;2022-11-27T04:27:01;7.40;99.90
3492;DHT22;1760;52.480;13.422;2022-11-27T04:29:28;7.40;99.90
3492;DHT22;1760;52.480;13.422;2022-11-27T04:31:54;7.40;99.90
3492;DHT22;1760;52.480;13.422;2022-11-27T04:34:23;7.40;99.90
3492;DHT22;1760;52.480;13.422;2022-11-27T04:36:50;7.40;99.90
3492;DHT22;1760;52.480;13.422;2022-11-27T04:39:17;7.40;99.90
3492;DHT22;1760;52.480;13.422;2022-11-27T04:41:44;7.40;99.90
3492;DHT22;1760;52.480;13.422;2022-11-27T04:44:10;7.40;99.90
3492;DHT22;1760;52.480;13.422;2022-11-27T04:46:37;7.40;99.90
3492;DHT22;1760;52.480;13.422;2022-11-27T04:49:05;7.30;99.90
3492;DHT22;1760;52.480;13.422;2022-11-27T04:51:33;7.30;99.90
3492;DHT22;1760;52.480;13.422;2022-11-27T04:54:02;7.30;99.90
3492;DHT22;1760;52.480;13.422;2022-11-27T04:56:29;7.20;99.90
3492;DHT22;1760;52.480;13.422;2022-11-27T04:58:57;7.20;99.90
3492;DHT22;1760;52.480;13.422;2022-11-27T05:01:24;7.10;99.90
3492;DHT22;1760;52.480;13.422;2022-11-27T05:03:51;7.10;99.90
3492;DHT22;1760;52.480;13.422;2022-11-27T05:06:18;7.00;99.90
3492;DHT22;1760;52.480;13.422;2022-11-27T05:08:48;6.90;99.90
3492;DHT22;1760;52.480;13.422;2022-11-27T05:11:16;6.90;99.90
3492;DHT22;1760;52.480;13.422;2022-11-27T05:13:44;6.90;99.90
3492;DHT22;1760;52.480;13.422;2022-11-27T05:16:11;6.80;99.90
3492;DHT22;1760;52.480;13.422;2022-11-27T05:18:38;6.80;99.90
3492;DHT22;1760;52.480;13.422;2022-11-27T05:21:08;6.80;99.90
3492;DHT22;1760;52.480;13.422;2022-11-27T05:23:37;6.70;99.90
3492;DHT22;1760;52.480;13.422;2022-11-27T05:26:06;6.70;99.90
3492;DHT22;1760;52.480;13.422;2022-11-27T05:28:36;6.70;99.90
3492;DHT22;1760;52.480;13.422;2022-11-27T05:31:02;6.60;99.90
3492;DHT22;1760;52.480;13.422;2022-11-27T05:33:32;6.60;99.90
3492;DHT22;1760;52.480;13.422;2022-11-27T05:36:02;6.50;99.90
3492;DHT22;1760;52.480;13.422;2022-11-27T05:38:28;6.50;99.90
3492;DHT22;1760;52.480;13.422;2022-11-27T05:41:04;6.40;99.90
3492;DHT22;1760;52.480;13.422;2022-11-27T05:43:33;6.40;99.90
3492;DHT22;1760;52.480;13.422;2022-11-27T05:46:03;6.30;99.90
3492;DHT22;1760;52.480;13.422;2022-11-27T05:48:30;6.30;99.90
3492;DHT22;1760;52.480;13.422;2022-11-27T05:50:57;6.30;99.90
3492;DHT22;1760;52.480;13.422;2022-11-27T05:53:24;6.20;99.90
3492;DHT22;1760;52.480;13.422;2022-11-27T05:55:53;6.20;99.90
3492;DHT22;1760;52.480;13.422;2022-11-27T05:58:21;6.30;99.90
3492;DHT22;1760;52.480;13.422;2022-11-27T06:00:50;6.20;99.90
3492;DHT22;1760;52.480;13.422;2022-11-27T06:03:17;6.20;99.90
3492;DHT22;1760;52.480;13.422;2022-11-27T06:05:44;6.20;99.90
3492;DHT22;1760;52.480;13.422;2022-11-27T06:08:14;6.10;99.90
3492;DHT22;1760;52.480;13.422;2022-11-27T06:10:44;6.10;99.90
3492;DHT22;1760;52.480;13.422;2022-11-27T06:13:11;6.10;99.90
3492;DHT22;1760;52.480;13.422;2022-11-27T06:15:39;6.10;99.90
3492;DHT22;1760;52.480;13.422;2022-11-27T06:18:10;6.00;99.90
3492;DHT22;1760;52.480;13.422;2022-11-27T06:20:37;6.00;99.90
3492;DHT22;1760;52.480;13.422;2022-11-27T06:23:04;6.00;99.90
3492;DHT22;1760;52.480;13.422;2022-11-27T06:25:31;5.90;99.90
3492;DHT22;1760;52.480;13.422;2022-11-27T06:27:58;5.90;99.90
3492;DHT22;1760;52.480;13.422;2022-11-27T06:30:25;5.90;99.90
3492;DHT22;1760;52.480;13.422;2022-11-27T06:32:53;5.90;99.90
3492;DHT22;1760;52.480;13.422;2022-11-27T06:35:22;5.90;99.90
3492;DHT22;1760;52.480;13.422;2022-11-27T06:37:55;5.90;99.90
3492;DHT22;1760;52.480;13.422;2022-11-27T06:40:25;5.90;99.90
3492;DHT22;1760;52.480;13.422;2022-11-27T06:42:54;5.90;99.90
3492;DHT22;1760;52.480;13.422;2022-11-27T06:45:24;5.90;99.90
3492;DHT22;1760;52.480;13.422;2022-11-27T06:47:54;5.90;99.90
3492;DHT22;1760;52.480;13.422;2022-11-27T06:50:23;5.90;99.90
3492;DHT22;1760;52.480;13.422;2022-11-27T06:52:50;5.90;99.90
3492;DHT22;1760;52.480;13.422;2022-11-27T06:55:20;5.90;99.90
3492;DHT22;1760;52.480;13.422;2022-11-27T06:57:49;5.90;99.90
3492;DHT22;1760;52.480;13.422;2022-11-27T07:00:16;5.90;99.90
3492;DHT22;1760;52.480;13.422;2022-11-27T07:02:44;5.90;99.90
3492;DHT22;1760;52.480;13.422;2022-11-27T07:05:12;5.90;99.90
3492;DHT22;1760;52.480;13.422;2022-11-27T07:07:39;5.90;99.90
3492;DHT22;1760;52.480;13.422;2022-11-27T07:10:24;5.80;99.90
3492;DHT22;1760;52.480;13.422;2022-11-27T07:12:59;5.80;99.90
3492;DHT22;1760;52.480;13.422;2022-11-27T07:15:26;5.90;99.90
3492;DHT22;1760;52.480;13.422;2022-11-27T07:17:53;5.80;99.90
3492;DHT22;1760;52.480;13.422;2022-11-27T07:20:21;5.90;99.90
3492;DHT22;1760;52.480;13.422;2022-11-27T07:22:48;5.90;99.90
3492;DHT22;1760;52.480;13.422;2022-11-27T07:25:17;5.90;99.90
3492;DHT22;1760;52.480;13.422;2022-11-27T07:27:44;5.80;99.90
3492;DHT22;1760;52.480;13.422;2022-11-27T07:30:12;5.80;99.90
3492;DHT22;1760;52.480;13.422;2022-11-27T07:32:39;5.80;99.90
3492;DHT22;1760;52.480;13.422;2022-11-27T07:35:06;5.80;99.90
3492;DHT22;1760;52.480;13.422;2022-11-27T07:37:35;5.80;99.90
3492;DHT22;1760;52.480;13.422;2022-11-27T07:40:06;5.80;99.90
3492;DHT22;1760;52.480;13.422;2022-11-27T07:42:33;5.80;99.90
3492;DHT22;1760;52.480;13.422;2022-11-27T07:44:59;5.80;99.90
3492;DHT22;1760;52.480;13.422;2022-11-27T07:47:28;5.70;99.90
3492;DHT22;1760;52.480;13.422;2022-11-27T07:49:55;5.80;99.90
3492;DHT22;1760;52.480;13.422;2022-11-27T07:52:24;5.70;99.90
3492;DHT22;1760;52.480;13.422;2022-11-27T07:54:53;5.80;99.90
3492;DHT22;1760;52.480;13.422;2022-11-27T07:57:20;5.90;99.90
3492;DHT22;1760;52.480;13.422;2022-11-27T07:59:47;5.90;99.90
3492;DHT22;1760;52.480;13.422;2022-11-27T08:02:14;6.40;99.90
3492;DHT22;1760;52.480;13.422;2022-11-27T08:04:41;6.90;99.90
3492;DHT22;1760;52.480;13.422;2022-11-27T08:07:08;6.80;99.90
3492;DHT22;1760;52.480;13.422;2022-11-27T08:09:38;6.60;99.90
3492;DHT22;1760;52.480;13.422;2022-11-27T08:12:06;6.50;99.90
3492;DHT22;1760;52.480;13.422;2022-11-27T08:14:33;6.40;99.90
3492;DHT22;1760;52.480;13.422;2022-11-27T08:17:00;6.30;99.90
3492;DHT22;1760;52.480;13.422;2022-11-27T08:19:27;6.30;99.90
3492;DHT22;1760;52.480;13.422;2022-11-27T08:21:54;6.20;99.90
3492;DHT22;1760;52.480;13.422;2022-11-27T08:24:22;6.20;99.90
3492;DHT22;1760;52.480;13.422;2022-11-27T08:26:50;6.20;99.90
3492;DHT22;1760;52.480;13.422;2022-11-27T08:29:19;6.20;99.90
3492;DHT22;1760;52.480;13.422;2022-11-27T08:31:46;6.20;99.90
3492;DHT22;1760;52.480;13.422;2022-11-27T08:34:12;6.10;99.90
3492;DHT22;1760;52.480;13.422;2022-11-27T08:36:39;6.20;99.90
3492;DHT22;1760;52.480;13.422;2022-11-27T08:39:06;6.10;99.90
3492;DHT22;1760;52.480;13.422;2022-11-27T08:41:33;6.20;99.90
3492;DHT22;1760;52.480;13.422;2022-11-27T08:44:00;6.20;99.90
3492;DHT22;1760;52.480;13.422;2022-11-27T08:46:28;6.20;99.90
3492;DHT22;1760;52.480;13.422;2022-11-27T08:48:58;6.20;99.90
3492;DHT22;1760;52.480;13.422;2022-11-27T08:51:25;6.20;99.90
3492;DHT22;1760;52.480;13.422;2022-11-27T08:53:52;6.30;99.90
3492;DHT22;1760;52.480;13.422;2022-11-27T08:56:21;6.30;99.90
3492;DHT22;1760;52.480;13.422;2022-11-27T08:58:49;6.30;99.90
3492;DHT22;1760;52.480;13.422;2022-11-27T09:01:18;6.40;99.90
3492;DHT22;1760;52.480;13.422;2022-11-27T09:03:47;6.40;99.90
3492;DHT22;1760;52.480;13.422;2022-11-27T09:06:16;6.50;99.90
3492;DHT22;1760;52.480;13.422;2022-11-27T09:08:43;6.50;99.90
3492;DHT22;1760;52.480;13.422;2022-11-27T09:11:12;6.50;99.90
3492;DHT22;1760;52.480;13.422;2022-11-27T09:13:40;6.50;99.90
3492;DHT22;1760;52.480;13.422;2022-11-27T09:16:10;6.60;99.90
3492;DHT22;1760;52.480;13.422;2022-11-27T09:18:38;6.90;99.90
3492;DHT22;1760;52.480;13.422;2022-11-27T09:21:08;7.20;99.90
3492;DHT22;1760;52.480;13.422;2022-11-27T09:23:35;7.40;99.90
3492;DHT22;1760;52.480;13.422;2022-11-27T09:26:06;7.80;99.90
3492;DHT22;1760;52.480;13.422;2022-11-27T09:28:34;8.20;99.90
3492;DHT22;1760;52.480;13.422;2022-11-27T09:31:03;8.60;99.90
3492;DHT22;1760;52.480;13.422;2022-11-27T09:33:32;8.90;99.90
3492;DHT22;1760;52.480;13.422;2022-11-27T09:36:03;9.10;99.90
3492;DHT22;1760;52.480;13.422;2022-11-27T09:38:31;9.30;99.90
3492;DHT22;1760;52.480;13.422;2022-11-27T09:41:02;9.50;99.90
3492;DHT22;1760;52.480;13.422;2022-11-27T09:43:39;9.80;99.90
3492;DHT22;1760;52.480;13.422;2022-11-27T09:46:12;10.10;99.90
3492;DHT22;1760;52.480;13.422;2022-11-27T09:48:42;10.20;99.90
3492;DHT22;1760;52.480;13.422;2022-11-27T09:51:18;10.20;99.90
3492;DHT22;1760;52.480;13.422;2022-11-27T09:53:54;10.40;99.90
3492;DHT22;1760;52.480;13.422;2022-11-27T09:56:24;10.50;99.90
3492;DHT22;1760;52.480;13.422;2022-11-27T09:58:55;10.70;99.90
3492;DHT22;1760;52.480;13.422;2022-11-27T10:01:39;11.20;99.90
3492;DHT22;1760;52.480;13.422;2022-11-27T10:04:08;11.60;99.90
3492;DHT22;1760;52.480;13.422;2022-11-27T10:07:01;12.10;99.90
3492;DHT22;1760;52.480;13.422;2022-11-27T10:09:41;12.80;99.90
3492;DHT22;1760;52.480;13.422;2022-11-27T10:12:19;13.50;99.90
3492;DHT22;1760;52.480;13.422;2022-11-27T10:14:58;13.90;99.90
3492;DHT22;1760;52.480;13.422;2022-11-27T10:17:32;14.30;99.90
3492;DHT22;1760;52.480;13.422;2022-11-27T10:20:15;14.60;99.90
3492;DHT22;1760;52.480;13.422;2022-11-27T10:22:52;14.30;99.90
3492;DHT22;1760;52.480;13.422;2022-11-27T10:25:27;13.70;99.90
3492;DHT22;1760;52.480;13.422;2022-11-27T10:28:05;13.20;99.90
3492;DHT22;1760;52.480;13.422;2022-11-27T10:30:38;12.70;99.90
3492;DHT22;1760;52.480;13.422;2022-11-27T10:33:12;12.10;99.90
3492;DHT22;1760;52.480;13.422;2022-11-27T10:35:42;11.60;99.90
3492;DHT22;1760;52.480;13.422;2022-11-27T10:38:11;11.10;99.90
3492;DHT22;1760;52.480;13.422;2022-11-27T10:40:44;10.60;99.90
3492;DHT22;1760;52.480;13.422;2022-11-27T10:43:18;10.30;99.90
3492;DHT22;1760;52.480;13.422;2022-11-27T10:45:48;10.00;99.90
3492;DHT22;1760;52.480;13.422;2022-11-27T10:48:16;9.70;99.90
3492;DHT22;1760;52.480;13.422;2022-11-27T10:50:43;9.50;99.90
3492;DHT22;1760;52.480;13.422;2022-11-27T10:53:14;9.30;99.90
3492;DHT22;1760;52.480;13.422;2022-11-27T10:56:08;9.20;99.90
3492;DHT22;1760;52.480;13.422;2022-11-27T10:58:43;9.10;99.90
3492;DHT22;1760;52.480;13.422;2022-11-27T11:01:14;9.00;99.90
3492;DHT22;1760;52.480;13.422;2022-11-27T11:03:45;8.90;99.90
3492;DHT22;1760;52.480;13.422;2022-11-27T11:06:15;8.80;99.90
3492;DHT22;1760;52.480;13.422;2022-11-27T11:08:42;8.80;99.90
3492;DHT22;1760;52.480;13.422;2022-11-27T11:11:23;8.80;99.90
3492;DHT22;1760;52.480;13.422;2022-11-27T11:13:53;8.70;99.90
3492;DHT22;1760;52.480;13.422;2022-11-27T11:16:21;8.60;99.90
3492;DHT22;1760;52.480;13.422;2022-11-27T11:18:51;8.60;99.90
3492;DHT22;1760;52.480;13.422;2022-11-27T11:21:23;9.90;99.90
3492;DHT22;1760;52.480;13.422;2022-11-27T11:23:57;10.00;99.90
3492;DHT22;1760;52.480;13.422;2022-11-27T11:26:28;9.80;99.90
3492;DHT22;1760;52.480;13.422;2022-11-27T11:28:59;9.50;99.90
3492;DHT22;1760;52.480;13.422;2022-11-27T11:31:31;9.20;99.90
3492;DHT22;1760;52.480;13.422;2022-11-27T11:34:02;9.10;99.90
3492;DHT22;1760;52.480;13.422;2022-11-27T11:36:29;9.00;99.90
3492;DHT22;1760;52.480;13.422;2022-11-27T11:38:56;9.00;99.90
3492;DHT22;1760;52.480;13.422;2022-11-27T11:41:35;9.00;99.90
3492;DHT22;1760;52.480;13.422;2022-11-27T11:44:03;9.00;99.90
3492;DHT22;1760;52.480;13.422;2022-11-27T11:46:34;9.10;99.90
3492;DHT22;1760;52.480;13.422;2022-11-27T11:49:06;9.00;99.90
3492;DHT22;1760;52.480;13.422;2022-11-27T11:52:05;9.10;99.90
3492;DHT22;1760;52.480;13.422;2022-11-27T11:54:46;9.10;99.90
3492;DHT22;1760;52.480;13.422;2022-11-27T11:57:42;9.10;99.90
3492;DHT22;1760;52.480;13.422;2022-11-27T12:00:13;9.10;99.90
3492;DHT22;1760;52.480;13.422;2022-11-27T12:03:13;9.10;99.90
3492;DHT22;1760;52.480;13.422;2022-11-27T12:05:57;9.00;99.90
3492;DHT22;1760;52.480;13.422;2022-11-27T12:08:41;9.00;99.90
3492;DHT22;1760;52.480;13.422;2022-11-27T12:11:14;8.90;99.90
3492;DHT22;1760;52.480;13.422;2022-11-27T12:13:49;8.90;99.90
3492;DHT22;1760;52.480;13.422;2022-11-27T12:16:23;8.80;99.90
3492;DHT22;1760;52.480;13.422;2022-11-27T12:19:03;9.40;99.90
3492;DHT22;1760;52.480;13.422;2022-11-27T12:21:38;9.90;99.90
3492;DHT22;1760;52.480;13.422;2022-11-27T12:24:18;9.70;99.90
3492;DHT22;1760;52.480;13.422;2022-11-27T12:26:58;9.50;99.90
3492;DHT22;1760;52.480;13.422;2022-11-27T12:29:52;9.30;99.90
3492;DHT22;1760;52.480;13.422;2022-11-27T12:32:32;9.20;99.90
3492;DHT22;1760;52.480;13.422;2022-11-27T12:35:21;9.10;99.90
3492;DHT22;1760;52.480;13.422;2022-11-27T12:38:04;9.00;99.90
3492;DHT22;1760;52.480;13.422;2022-11-27T12:40:44;8.90;99.90
3492;DHT22;1760;52.480;13.422;2022-11-27T12:43:22;8.90;99.90
3492;DHT22;1760;52.480;13.422;2022-11-27T12:45:56;8.80;99.90
3492;DHT22;1760;52.480;13.422;2022-11-27T12:48:27;8.80;99.90
3492;DHT22;1760;52.480;13.422;2022-11-27T12:50:57;8.90;99.90
3492;DHT22;1760;52.480;13.422;2022-11-27T12:53:30;8.80;99.90
3492;DHT22;1760;52.480;13.422;2022-11-27T12:56:05;8.80;99.90
3492;DHT22;1760;52.480;13.422;2022-11-27T12:58:41;8.70;99.90
3492;DHT22;1760;52.480;13.422;2022-11-27T13:01:16;8.80;99.90
3492;DHT22;1760;52.480;13.422;2022-11-27T13:03:52;8.70;99.90
3492;DHT22;1760;52.480;13.422;2022-11-27T13:06:24;8.70;99.90
3492;DHT22;1760;52.480;13.422;2022-11-27T13:08:56;8.70;99.90
3492;DHT22;1760;52.480;13.422;2022-11-27T13:11:30;8.60;99.90
3492;DHT22;1760;52.480;13.422;2022-11-27T13:14:02;8.60;99.90
3492;DHT22;1760;52.480;13.422;2022-11-27T13:16:34;8.60;99.90
3492;DHT22;1760;52.480;13.422;2022-11-27T13:19:09;8.60;99.90
3492;DHT22;1760;52.480;13.422;2022-11-27T13:21:40;8.60;99.90
3492;DHT22;1760;52.480;13.422;2022-11-27T13:24:11;8.70;99.90
3492;DHT22;1760;52.480;13.422;2022-11-27T13:26:42;8.60;99.90
3492;DHT22;1760;52.480;13.422;2022-11-27T13:29:16;8.60;99.90
3492;DHT22;1760;52.480;13.422;2022-11-27T13:31:47;8.60;99.90
3492;DHT22;1760;52.480;13.422;2022-11-27T13:34:20;8.60;99.90
3492;DHT22;1760;52.480;13.422;2022-11-27T13:36:56;8.60;99.90
3492;DHT22;1760;52.480;13.422;2022-11-27T13:39:26;8.50;99.90
3492;DHT22;1760;52.480;13.422;2022-11-27T13:42:02;8.50;99.90
3492;DHT22;1760;52.480;13.422;2022-11-27T13:44:32;8.50;99.90
3492;DHT22;1760;52.480;13.422;2022-11-27T13:47:08;8.50;99.90
3492;DHT22;1760;52.480;13.422;2022-11-27T13:49:36;8.50;99.90
3492;DHT22;1760;52.480;13.422;2022-11-27T13:52:06;8.50;99.90
3492;DHT22;1760;52.480;13.422;2022-11-27T13:54:33;8.50;99.90
3492;DHT22;1760;52.480;13.422;2022-11-27T13:57:14;8.50;99.90
3492;DHT22;1760;52.480;13.422;2022-11-27T13:59:54;8.50;99.90
3492;DHT22;1760;52.480;13.422;2022-11-27T14:02:23;8.50;99.90
3492;DHT22;1760;52.480;13.422;2022-11-27T14:04:51;8.50;99.90
3492;DHT22;1760;52.480;13.422;2022-11-27T14:07:19;8.50;99.90
3492;DHT22;1760;52.480;13.422;2022-11-27T14:09:47;8.50;99.90
3492;DHT22;1760;52.480;13.422;2022-11-27T14:12:21;8.50;99.90
3492;DHT22;1760;52.480;13.422;2022-11-27T14:15:02;8.40;99.90
3492;DHT22;1760;52.480;13.422;2022-11-27T14:17:38;8.40;99.90
3492;DHT22;1760;52.480;13.422;2022-11-27T14:20:24;8.40;99.90
3492;DHT22;1760;52.480;13.422;2022-11-27T14:22:53;8.40;99.90
3492;DHT22;1760;52.480;13.422;2022-11-27T14:25:23;8.50;99.90
3492;DHT22;1760;52.480;13.422;2022-11-27T14:27:57;8.40;99.90
3492;DHT22;1760;52.480;13.422;2022-11-27T14:30:32;8.40;99.90
3492;DHT22;1760;52.480;13.422;2022-11-27T14:33:04;8.40;99.90
3492;DHT22;1760;52.480;13.422;2022-11-27T14:35:33;8.30;99.90
3492;DHT22;1760;52.480;13.422;2022-11-27T14:38:10;8.30;99.90
3492;DHT22;1760;52.480;13.422;2022-11-27T14:40:37;8.30;99.90
3492;DHT22;1760;52.480;13.422;2022-11-27T14:43:08;8.20;99.90
3492;DHT22;1760;52.480;13.422;2022-11-27T14:45:35;8.30;99.90
3492;DHT22;1760;52.480;13.422;2022-11-27T14:48:05;8.20;99.90
3492;DHT22;1760;52.480;13.422;2022-11-27T14:50:32;8.20;99.90
3492;DHT22;1760;52.480;13.422;2022-11-27T14:52:59;8.20;99.90
3492;DHT22;1760;52.480;13.422;2022-11-27T14:55:26;8.20;99.90
3492;DHT22;1760;52.480;13.422;2022-11-27T14:57:54;8.10;99.90
3492;DHT22;1760;52.480;13.422;2022-11-27T15:00:23;8.10;99.90
3492;DHT22;1760;52.480;13.422;2022-11-27T15:02:52;8.10;99.90
3492;DHT22;1760;52.480;13.422;2022-11-27T15:05:22;8.10;99.90
3492;DHT22;1760;52.480;13.422;2022-11-27T15:07:51;8.10;99.90
3492;DHT22;1760;52.480;13.422;2022-11-27T15:10:28;8.10;99.90
3492;DHT22;1760;52.480;13.422;2022-11-27T15:12:56;8.10;99.90
3492;DHT22;1760;52.480;13.422;2022-11-27T15:15:29;8.10;99.90
3492;DHT22;1760;52.480;13.422;2022-11-27T15:18:00;8.10;99.90
3492;DHT22;1760;52.480;13.422;2022-11-27T15:20:36;8.10;99.90
3492;DHT22;1760;52.480;13.422;2022-11-27T15:23:11;8.00;99.90
3492;DHT22;1760;52.480;13.422;2022-11-27T15:25:42;8.00;99.90
3492;DHT22;1760;52.480;13.422;2022-11-27T15:28:32;8.00;99.90
3492;DHT22;1760;52.480;13.422;2022-11-27T15:34:22;8.60;99.90
3492;DHT22;1760;52.480;13.422;2022-11-27T15:36:54;9.40;99.90
3492;DHT22;1760;52.480;13.422;2022-11-27T15:39:24;9.50;99.90
3492;DHT22;1760;52.480;13.422;2022-11-27T15:41:53;9.30;99.90
3492;DHT22;1760;52.480;13.422;2022-11-27T15:44:24;9.10;99.90
3492;DHT22;1760;52.480;13.422;2022-11-27T15:46:52;8.90;99.90
3492;DHT22;1760;52.480;13.422;2022-11-27T15:49:20;8.60;99.90
3492;DHT22;1760;52.480;13.422;2022-11-27T15:51:48;8.50;99.90
3492;DHT22;1760;52.480;13.422;2022-11-27T15:54:17;8.30;99.90
3492;DHT22;1760;52.480;13.422;2022-11-27T15:56:44;8.20;99.90
3492;DHT22;1760;52.480;13.422;2022-11-27T15:59:11;8.20;99.90
3492;DHT22;1760;52.480;13.422;2022-11-27T16:01:38;8.00;99.90
3492;DHT22;1760;52.480;13.422;2022-11-27T16:04:05;8.00;99.90
3492;DHT22;1760;52.480;13.422;2022-11-27T16:06:34;7.90;99.90
3492;DHT22;1760;52.480;13.422;2022-11-27T16:09:26;7.90;99.90
3492;DHT22;1760;52.480;13.422;2022-11-27T16:11:53;7.90;99.90
3492;DHT22;1760;52.480;13.422;2022-11-27T16:14:21;7.80;99.90
3492;DHT22;1760;52.480;13.422;2022-11-27T16:16:49;7.80;99.90
3492;DHT22;1760;52.480;13.422;2022-11-27T16:19:16;7.70;99.90
3492;DHT22;1760;52.480;13.422;2022-11-27T16:21:43;7.70;99.90
3492;DHT22;1760;52.480;13.422;2022-11-27T16:24:12;7.60;99.90
3492;DHT22;1760;52.480;13.422;2022-11-27T16:26:42;7.60;99.90
3492;DHT22;1760;52.480;13.422;2022-11-27T16:29:09;7.60;99.90